Terminal Aerodrome Forecast
Issued by NWS Louisville, KY

Home | Current Version | Previous Version | Text Only | Print | Product List | Glossary On
Versions: 1 2 3 4 5 6 7 8 9 10 11 12 13 14 15 16 17 18 19 20 21
080
FTUS43 KLMK 170405 AAA
TAFBWG
TAF AMD
KBWG 170405Z 1704/1724 01005KT P6SM OVC022
     FM171000 VRB05KT P6SM BKN060 PROB30 1713/1715 4SM -SHRA OVC015
     FM171500 09004KT 4SM -SHRA OVC011
     FM171800 VRB04KT 1 1/2SM SHRA OVC005
     FM172100 21005KT 3SM -SHRA OVC008=

USA.gov is the U.S. government's official web portal to all federal, state and local government web resources and services.